CNH120 UKBB-UKWW
Flight info
| Callsign | CNH120 |
|---|---|
| Flight time | 0h 35m |
| Altitude | 18000 |
| Route | SLV Q545 POGER |
| Aircraft | T154/M-SDGRWY/S |
Departure
| Time | 2026-05-06 20:55 |
|---|---|
| Airport | Boryspil International Airport (UKBB) |
Arrival
| Time | 2026-05-06 21:30 |
|---|---|
| Airport | Vinnytsia/Gavyryshivka International Airport (UKWW) |
| Time | Latitude | Longitude | Altitude | Speed | Heading |
|---|---|---|---|---|---|
| 2026-05-06 20:39 | 50.33737 | 30.89558 | 419 ft | 0 kts | 91° |
| 2026-05-06 20:47 | 50.33737 | 30.89563 | 419 ft | 0 kts | 91° |
| 2026-05-06 20:48 | 50.33734 | 30.89578 | 419 ft | 2 kts | 124° |
| 2026-05-06 20:48 | 50.33698 | 30.89591 | 419 ft | 8 kts | 172° |
| 2026-05-06 20:48 | 50.33649 | 30.89597 | 419 ft | 4 kts | 182° |
| 2026-05-06 20:48 | 50.33622 | 30.89596 | 418 ft | 0 kts | 182° |
| 2026-05-06 20:49 | 50.33607 | 30.89597 | 418 ft | 6 kts | 175° |
| 2026-05-06 20:49 | 50.33524 | 30.89595 | 417 ft | 11 kts | 175° |
| 2026-05-06 20:49 | 50.33472 | 30.89619 | 417 ft | 6 kts | 130° |
| 2026-05-06 20:50 | 50.33438 | 30.89685 | 416 ft | 9 kts | 130° |
| 2026-05-06 20:50 | 50.33393 | 30.89779 | 416 ft | 10 kts | 126° |
| 2026-05-06 20:50 | 50.33351 | 30.89872 | 416 ft | 10 kts | 118° |
| 2026-05-06 20:50 | 50.33331 | 30.89975 | 416 ft | 9 kts | 99° |
| 2026-05-06 20:51 | 50.33309 | 30.90073 | 416 ft | 9 kts | 128° |
| 2026-05-06 20:51 | 50.33252 | 30.90113 | 416 ft | 9 kts | 174° |
| 2026-05-06 20:51 | 50.33190 | 30.90113 | 416 ft | 8 kts | 181° |
| 2026-05-06 20:51 | 50.33128 | 30.90109 | 415 ft | 9 kts | 183° |
| 2026-05-06 20:52 | 50.33043 | 30.90101 | 413 ft | 14 kts | 183° |
| 2026-05-06 20:52 | 50.32934 | 30.90094 | 413 ft | 15 kts | 182° |
| 2026-05-06 20:52 | 50.32825 | 30.90086 | 412 ft | 15 kts | 183° |
| 2026-05-06 20:52 | 50.32713 | 30.90078 | 410 ft | 16 kts | 182° |
| 2026-05-06 20:53 | 50.32599 | 30.90070 | 409 ft | 11 kts | 182° |
| 2026-05-06 20:53 | 50.32523 | 30.90075 | 409 ft | 10 kts | 167° |
| 2026-05-06 20:53 | 50.32467 | 30.90141 | 409 ft | 10 kts | 121° |
| 2026-05-06 20:53 | 50.32452 | 30.90243 | 409 ft | 9 kts | 82° |
| 2026-05-06 20:54 | 50.32497 | 30.90347 | 409 ft | 15 kts | 34° |
| 2026-05-06 20:54 | 50.32621 | 30.90394 | 410 ft | 21 kts | 4° |
| 2026-05-06 20:54 | 50.32993 | 30.90425 | 413 ft | 96 kts | 2° |
| 2026-05-06 20:54 | 50.33946 | 30.90491 | 413 ft | 176 kts | 3° |
| 2026-05-06 20:55 | 50.35274 | 30.90591 | 918 ft | 207 kts | 2° |
| 2026-05-06 20:55 | 50.36784 | 30.90649 | 1704 ft | 234 kts | 0° |
| 2026-05-06 20:55 | 50.38495 | 30.90642 | 2589 ft | 261 kts | 356° |
| 2026-05-06 20:55 | 50.40323 | 30.90269 | 3676 ft | 278 kts | 342° |
| 2026-05-06 20:56 | 50.42000 | 30.88836 | 4890 ft | 282 kts | 318° |
| 2026-05-06 20:56 | 50.43209 | 30.86450 | 5775 ft | 286 kts | 293° |
| 2026-05-06 20:56 | 50.43572 | 30.83406 | 6621 ft | 291 kts | 264° |
| 2026-05-06 20:56 | 50.43066 | 30.80306 | 7470 ft | 298 kts | 253° |
| 2026-05-06 20:57 | 50.42469 | 30.77181 | 8330 ft | 304 kts | 254° |
| 2026-05-06 20:57 | 50.41813 | 30.74032 | 9235 ft | 307 kts | 251° |
| 2026-05-06 20:57 | 50.41037 | 30.70928 | 10164 ft | 310 kts | 248° |
| 2026-05-06 20:57 | 50.40241 | 30.67794 | 10945 ft | 316 kts | 249° |
| 2026-05-06 20:58 | 50.39423 | 30.64607 | 11965 ft | 313 kts | 248° |
| 2026-05-06 20:58 | 50.38606 | 30.61453 | 12747 ft | 318 kts | 252° |
| 2026-05-06 20:58 | 50.37922 | 30.58145 | 13531 ft | 322 kts | 254° |
| 2026-05-06 20:58 | 50.37261 | 30.54771 | 14116 ft | 333 kts | 254° |
| 2026-05-06 20:59 | 50.36538 | 30.51286 | 14915 ft | 336 kts | 252° |
| 2026-05-06 20:59 | 50.35834 | 30.47798 | 15569 ft | 343 kts | 255° |
| 2026-05-06 20:59 | 50.35174 | 30.44232 | 16515 ft | 339 kts | 255° |
| 2026-05-06 20:59 | 50.34536 | 30.40775 | 17620 ft | 329 kts | 255° |
| 2026-05-06 21:00 | 50.33878 | 30.37399 | 18543 ft | 325 kts | 255° |
| 2026-05-06 21:00 | 50.33203 | 30.33988 | 19012 ft | 336 kts | 254° |
| 2026-05-06 21:00 | 50.32491 | 30.30414 | 19416 ft | 348 kts | 253° |
| 2026-05-06 21:00 | 50.31742 | 30.26801 | 20031 ft | 352 kts | 253° |
| 2026-05-06 21:01 | 50.30975 | 30.23116 | 20570 ft | 359 kts | 253° |
| 2026-05-06 21:01 | 50.30187 | 30.19455 | 21224 ft | 362 kts | 253° |
| 2026-05-06 21:01 | 50.29380 | 30.15742 | 22003 ft | 359 kts | 252° |
| 2026-05-06 21:01 | 50.28549 | 30.12152 | 23060 ft | 348 kts | 250° |
| 2026-05-06 21:02 | 50.27721 | 30.08573 | 23535 ft | 355 kts | 253° |
| 2026-05-06 21:02 | 50.26955 | 30.04840 | 24021 ft | 361 kts | 255° |
| 2026-05-06 21:02 | 50.26199 | 30.01100 | 24580 ft | 364 kts | 253° |
| 2026-05-06 21:02 | 50.25368 | 29.97368 | 25255 ft | 364 kts | 251° |
| 2026-05-06 21:03 | 50.24510 | 29.93659 | 25714 ft | 369 kts | 254° |
| 2026-05-06 21:03 | 50.23774 | 29.89753 | 26190 ft | 373 kts | 257° |
| 2026-05-06 21:03 | 50.23181 | 29.85868 | 26860 ft | 370 kts | 259° |
| 2026-05-06 21:03 | 50.22637 | 29.81936 | 27393 ft | 373 kts | 259° |
| 2026-05-06 21:04 | 50.22073 | 29.77946 | 27765 ft | 380 kts | 259° |
| 2026-05-06 21:04 | 50.21478 | 29.73888 | 28111 ft | 387 kts | 258° |
| 2026-05-06 21:04 | 50.20860 | 29.69755 | 28381 ft | 396 kts | 258° |
| 2026-05-06 21:04 | 50.20251 | 29.65589 | 28708 ft | 402 kts | 260° |
| 2026-05-06 21:05 | 50.19717 | 29.61309 | 29173 ft | 404 kts | 262° |
| 2026-05-06 21:05 | 50.19239 | 29.56881 | 29200 ft | 418 kts | 263° |
| 2026-05-06 21:05 | 50.18819 | 29.52386 | 29507 ft | 424 kts | 264° |
| 2026-05-06 21:05 | 50.18494 | 29.47761 | 29680 ft | 433 kts | 264° |
| 2026-05-06 21:06 | 50.17795 | 29.43200 | 29768 ft | 445 kts | 252° |
| 2026-05-06 21:06 | 50.16420 | 29.38820 | 30043 ft | 451 kts | 240° |
| 2026-05-06 21:06 | 50.14476 | 29.34957 | 30439 ft | 455 kts | 228° |
| 2026-05-06 21:06 | 50.12089 | 29.31710 | 30893 ft | 457 kts | 217° |
| 2026-05-06 21:07 | 50.09412 | 29.29147 | 31289 ft | 460 kts | 211° |
| 2026-05-06 21:07 | 50.06584 | 29.26760 | 31475 ft | 466 kts | 210° |
| 2026-05-06 21:07 | 50.03734 | 29.24404 | 31615 ft | 463 kts | 210° |
| 2026-05-06 21:07 | 50.00870 | 29.22050 | 31783 ft | 461 kts | 210° |
| 2026-05-06 21:08 | 49.98064 | 29.19744 | 31832 ft | 461 kts | 210° |
| 2026-05-06 21:08 | 49.92388 | 29.15111 | 31872 ft | 466 kts | 210° |
| 2026-05-06 21:09 | 49.86570 | 29.10467 | 31961 ft | 475 kts | 209° |
| 2026-05-06 21:09 | 49.80654 | 29.05912 | 32013 ft | 475 kts | 208° |
| 2026-05-06 21:10 | 49.74769 | 29.01487 | 31859 ft | 468 kts | 208° |
| 2026-05-06 21:10 | 49.71868 | 28.99323 | 31755 ft | 464 kts | 207° |
| 2026-05-06 21:10 | 49.68977 | 28.97187 | 31706 ft | 459 kts | 207° |
| 2026-05-06 21:10 | 49.66087 | 28.95094 | 31465 ft | 454 kts | 207° |
| 2026-05-06 21:11 | 49.63276 | 28.93081 | 30966 ft | 447 kts | 207° |
| 2026-05-06 21:11 | 49.60449 | 28.91072 | 30140 ft | 449 kts | 205° |
| 2026-05-06 21:11 | 49.57590 | 28.89151 | 29261 ft | 450 kts | 205° |
| 2026-05-06 21:11 | 49.54726 | 28.87267 | 28467 ft | 449 kts | 205° |
| 2026-05-06 21:12 | 49.51911 | 28.85400 | 27838 ft | 443 kts | 204° |
| 2026-05-06 21:12 | 49.49095 | 28.83542 | 27048 ft | 442 kts | 206° |
| 2026-05-06 21:12 | 49.46333 | 28.81471 | 26289 ft | 438 kts | 207° |
| 2026-05-06 21:12 | 49.43654 | 28.79446 | 25607 ft | 434 kts | 208° |
| 2026-05-06 21:13 | 49.41066 | 28.77151 | 25001 ft | 425 kts | 212° |
| 2026-05-06 21:13 | 49.38595 | 28.74820 | 24703 ft | 413 kts | 212° |
| 2026-05-06 21:13 | 49.36163 | 28.72502 | 24052 ft | 410 kts | 212° |
| 2026-05-06 21:13 | 49.33746 | 28.70185 | 23025 ft | 416 kts | 212° |
| 2026-05-06 21:14 | 49.31273 | 28.67848 | 21647 ft | 428 kts | 211° |
| 2026-05-06 21:14 | 49.28761 | 28.65540 | 20802 ft | 424 kts | 211° |
| 2026-05-06 21:14 | 49.26191 | 28.63444 | 20318 ft | 412 kts | 205° |
| 2026-05-06 21:14 | 49.23565 | 28.61805 | 19831 ft | 402 kts | 201° |
| 2026-05-06 21:15 | 49.21003 | 28.60418 | 19478 ft | 390 kts | 199° |
| 2026-05-06 21:15 | 49.18444 | 28.59203 | 19063 ft | 380 kts | 195° |
| 2026-05-06 21:15 | 49.15893 | 28.58538 | 18720 ft | 370 kts | 183° |
| 2026-05-06 21:15 | 49.13356 | 28.58716 | 18230 ft | 365 kts | 177° |
| 2026-05-06 21:16 | 49.10838 | 28.59312 | 17236 ft | 375 kts | 167° |
| 2026-05-06 21:16 | 49.08373 | 28.60626 | 16452 ft | 375 kts | 157° |
| 2026-05-06 21:16 | 49.06063 | 28.62336 | 15999 ft | 366 kts | 152° |
| 2026-05-06 21:16 | 49.03865 | 28.64331 | 15124 ft | 370 kts | 146° |
| 2026-05-06 21:17 | 49.01824 | 28.66573 | 14794 ft | 357 kts | 142° |
| 2026-05-06 21:17 | 48.99992 | 28.69003 | 14583 ft | 342 kts | 135° |
| 2026-05-06 21:17 | 48.98667 | 28.71850 | 14558 ft | 322 kts | 111° |
| 2026-05-06 21:17 | 48.98294 | 28.75102 | 14411 ft | 309 kts | 86° |
| 2026-05-06 21:18 | 48.98850 | 28.78209 | 13972 ft | 307 kts | 62° |
| 2026-05-06 21:18 | 49.00050 | 28.80876 | 13462 ft | 309 kts | 51° |
| 2026-05-06 21:18 | 49.01561 | 28.83285 | 12473 ft | 326 kts | 37° |
| 2026-05-06 21:18 | 49.03623 | 28.84757 | 11431 ft | 340 kts | 12° |
| 2026-05-06 21:19 | 49.05913 | 28.84874 | 10982 ft | 331 kts | 348° |
| 2026-05-06 21:19 | 49.08007 | 28.83455 | 10120 ft | 337 kts | 322° |
| 2026-05-06 21:19 | 49.09782 | 28.81101 | 9123 ft | 346 kts | 317° |
| 2026-05-06 21:19 | 49.11593 | 28.78676 | 7949 ft | 359 kts | 318° |
| 2026-05-06 21:20 | 49.13500 | 28.76105 | 6616 ft | 370 kts | 317° |
| 2026-05-06 21:20 | 49.15391 | 28.73554 | 6031 ft | 361 kts | 317° |
| 2026-05-06 21:20 | 49.17229 | 28.71064 | 5601 ft | 346 kts | 317° |
| 2026-05-06 21:20 | 49.18998 | 28.68599 | 4702 ft | 348 kts | 316° |
| 2026-05-06 21:21 | 49.20775 | 28.66101 | 3913 ft | 344 kts | 316° |
| 2026-05-06 21:21 | 49.22504 | 28.63706 | 3624 ft | 327 kts | 317° |
| 2026-05-06 21:21 | 49.24151 | 28.61482 | 3501 ft | 306 kts | 317° |
| 2026-05-06 21:21 | 49.25510 | 28.59151 | 3443 ft | 284 kts | 300° |
| 2026-05-06 21:22 | 49.26289 | 28.56519 | 3456 ft | 264 kts | 286° |
| 2026-05-06 21:22 | 49.26691 | 28.53765 | 3323 ft | 266 kts | 278° |
| 2026-05-06 21:22 | 49.26991 | 28.50986 | 3228 ft | 268 kts | 278° |
| 2026-05-06 21:22 | 49.27301 | 28.48224 | 3213 ft | 261 kts | 278° |
| 2026-05-06 21:23 | 49.27631 | 28.45545 | 3154 ft | 246 kts | 279° |
| 2026-05-06 21:23 | 49.27984 | 28.43061 | 3100 ft | 233 kts | 280° |
| 2026-05-06 21:23 | 49.28323 | 28.40696 | 3026 ft | 220 kts | 282° |
| 2026-05-06 21:23 | 49.28864 | 28.38566 | 3139 ft | 212 kts | 299° |
| 2026-05-06 21:24 | 49.29823 | 28.36822 | 3208 ft | 215 kts | 319° |
| 2026-05-06 21:24 | 49.31099 | 28.35619 | 3251 ft | 219 kts | 335° |
| 2026-05-06 21:24 | 49.32571 | 28.34999 | 3281 ft | 223 kts | 352° |
| 2026-05-06 21:24 | 49.34127 | 28.35058 | 3293 ft | 227 kts | 10° |
| 2026-05-06 21:25 | 49.35624 | 28.35904 | 3253 ft | 231 kts | 32° |
| 2026-05-06 21:25 | 49.36809 | 28.37528 | 3310 ft | 229 kts | 53° |
| 2026-05-06 21:25 | 49.37576 | 28.39635 | 3375 ft | 226 kts | 70° |
| 2026-05-06 21:25 | 49.37882 | 28.42006 | 3331 ft | 228 kts | 90° |
| 2026-05-06 21:26 | 49.37606 | 28.44290 | 3588 ft | 208 kts | 116° |
| 2026-05-06 21:26 | 49.36760 | 28.45903 | 3628 ft | 188 kts | 142° |
| 2026-05-06 21:26 | 49.35656 | 28.46998 | 3337 ft | 185 kts | 150° |
| 2026-05-06 21:26 | 49.34598 | 28.47959 | 3268 ft | 169 kts | 149° |
| 2026-05-06 21:27 | 49.33674 | 28.48884 | 3179 ft | 149 kts | 147° |
| 2026-05-06 21:27 | 49.32865 | 28.49785 | 2975 ft | 143 kts | 145° |
| 2026-05-06 21:27 | 49.32077 | 28.50711 | 2763 ft | 142 kts | 143° |
| 2026-05-06 21:27 | 49.31335 | 28.51696 | 2538 ft | 141 kts | 140° |
| 2026-05-06 21:28 | 49.30625 | 28.52702 | 2363 ft | 136 kts | 140° |
| 2026-05-06 21:28 | 49.29931 | 28.53666 | 2222 ft | 134 kts | 140° |
| 2026-05-06 21:28 | 49.29236 | 28.54620 | 2038 ft | 136 kts | 142° |
| 2026-05-06 21:28 | 49.28508 | 28.55562 | 1904 ft | 133 kts | 141° |
| 2026-05-06 21:29 | 49.27824 | 28.56500 | 1755 ft | 133 kts | 139° |
| 2026-05-06 21:29 | 49.27137 | 28.57496 | 1557 ft | 137 kts | 140° |
| 2026-05-06 21:29 | 49.26412 | 28.58458 | 1375 ft | 141 kts | 142° |
| 2026-05-06 21:29 | 49.25663 | 28.59474 | 1185 ft | 143 kts | 141° |
| 2026-05-06 21:30 | 49.24945 | 28.60442 | 989 ft | 130 kts | 141° |
| 2026-05-06 21:30 | 49.24348 | 28.61250 | 986 ft | 88 kts | 139° |
| 2026-05-06 21:30 | 49.24034 | 28.61677 | 985 ft | 39 kts | 137° |
| 2026-05-06 21:30 | 49.23901 | 28.61859 | 985 ft | 19 kts | 137° |
| 2026-05-06 21:31 | 49.23824 | 28.61965 | 985 ft | 9 kts | 137° |
| 2026-05-06 21:31 | 49.23792 | 28.62001 | 985 ft | 2 kts | 162° |
| 2026-05-06 21:31 | 49.23772 | 28.61997 | 985 ft | 4 kts | 195° |
| 2026-05-06 21:31 | 49.23732 | 28.61953 | 985 ft | 8 kts | 226° |
| 2026-05-06 21:32 | 49.23692 | 28.61887 | 985 ft | 8 kts | 227° |
| 2026-05-06 21:32 | 49.23626 | 28.61778 | 985 ft | 4 kts | 229° |
| 2026-05-06 21:32 | 49.23601 | 28.61740 | 985 ft | 4 kts | 205° |
| 2026-05-06 21:33 | 49.23568 | 28.61752 | 985 ft | 5 kts | 144° |
| 2026-05-06 21:33 | 49.23546 | 28.61794 | 985 ft | 3 kts | 101° |
| 2026-05-06 21:33 | 49.23552 | 28.61812 | 985 ft | 0 kts | 36° |
| 2026-05-06 21:33 | 49.23554 | 28.61816 | 985 ft | 0 kts | 46° |
| 2026-05-06 22:12 | 49.24301 | 28.60693 | 985 ft | 0 kts | 48° |
| 2026-05-06 22:12 | 49.24343 | 28.60564 | 985 ft | 0 kts | 47° |
| 2026-05-06 22:12 | 49.24350 | 28.60581 | 985 ft | 0 kts | 232° |
| 2026-05-06 22:13 | 49.24345 | 28.60572 | 985 ft | 0 kts | 232° |
| 2026-05-06 22:13 | 49.24347 | 28.60572 | 985 ft | 0 kts | 229° |